createdAt,value
2023-03-11T00:02:21.794Z,0.73
2023-03-11T00:04:48.288Z,0.60
2023-03-11T00:07:14.693Z,0.88
2023-03-11T00:09:41.138Z,3.13
2023-03-11T00:12:07.828Z,0.95
2023-03-11T00:14:34.222Z,0.70
2023-03-11T00:17:00.657Z,0.90
2023-03-11T00:19:27.096Z,1.33
2023-03-11T00:21:53.576Z,0.70
2023-03-11T00:24:20.246Z,1.48
2023-03-11T00:26:46.683Z,1.05
2023-03-11T00:29:13.394Z,1.25
2023-03-11T00:31:39.829Z,1.92
2023-03-11T00:34:06.225Z,1.90
2023-03-11T00:36:36.377Z,1.45
2023-03-11T00:39:06.654Z,1.83
2023-03-11T00:41:36.238Z,2.28
2023-03-11T00:44:03.168Z,2.65
2023-03-11T00:46:31.013Z,2.70
2023-03-11T00:48:57.707Z,2.72
2023-03-11T00:51:24.139Z,3.67
2023-03-11T00:53:50.519Z,3.33
2023-03-11T00:56:17.133Z,3.08
2023-03-11T00:58:45.238Z,3.58
2023-03-11T01:01:14.970Z,3.88
2023-03-11T01:03:42.025Z,4.32
2023-03-11T01:06:09.018Z,3.60
2023-03-11T01:08:35.787Z,3.97
2023-03-11T01:11:03.674Z,3.95
2023-03-11T01:13:30.850Z,3.33
2023-03-11T01:15:57.439Z,4.15
2023-03-11T01:18:24.430Z,3.67
2023-03-11T01:20:51.114Z,3.17
2023-03-11T01:23:18.945Z,2.60
2023-03-11T01:25:45.592Z,3.03
2023-03-11T01:28:13.447Z,3.28
2023-03-11T01:30:41.640Z,3.22
2023-03-11T01:33:13.614Z,3.35
2023-03-11T01:35:42.192Z,3.72
2023-03-11T01:38:08.628Z,2.80
2023-03-11T01:40:44.317Z,2.72
2023-03-11T01:43:41.795Z,2.08
2023-03-11T01:46:11.111Z,2.15
2023-03-11T01:51:07.227Z,2.55
2023-03-11T01:53:34.291Z,2.85
2023-03-11T01:56:03.493Z,2.92
2023-03-11T01:58:37.630Z,4.30
2023-03-11T02:01:04.359Z,2.50
2023-03-11T02:03:36.957Z,2.95
2023-03-11T02:06:07.717Z,3.40
2023-03-11T02:08:34.573Z,2.97
2023-03-11T02:11:03.615Z,2.92
2023-03-11T02:13:31.938Z,2.85
2023-03-11T02:16:00.567Z,3.42
2023-03-11T02:18:27.604Z,3.30
2023-03-11T02:21:13.753Z,3.30
2023-03-11T02:24:08.810Z,3.67
2023-03-11T02:26:58.910Z,3.45
2023-03-11T02:29:27.748Z,3.17
2023-03-11T02:31:56.760Z,3.10
2023-03-11T02:34:29.517Z,2.25
2023-03-11T02:36:56.314Z,4.10
2023-03-11T02:39:38.105Z,2.55
2023-03-11T02:42:30.966Z,3.22
2023-03-11T02:45:08.044Z,1.85
2023-03-11T02:47:37.147Z,2.47
2023-03-11T02:50:04.782Z,3.55
2023-03-11T02:52:35.361Z,2.70
2023-03-11T02:55:07.434Z,2.75
2023-03-11T02:57:34.016Z,3.08
2023-03-11T03:00:06.318Z,2.72
2023-03-11T03:02:32.772Z,2.08
2023-03-11T03:04:59.170Z,2.17
2023-03-11T03:07:25.624Z,3.63
2023-03-11T03:09:52.040Z,2.85
2023-03-11T03:12:18.448Z,3.75
2023-03-11T03:14:44.833Z,2.95
2023-03-11T03:17:11.350Z,3.20
2023-03-11T03:19:37.797Z,3.25
2023-03-11T03:22:04.289Z,3.17
2023-03-11T03:24:31.189Z,3.10
2023-03-11T03:26:57.657Z,2.25
2023-03-11T03:29:24.104Z,3.75
2023-03-11T03:31:50.542Z,3.38
2023-03-11T03:34:16.975Z,3.00
2023-03-11T03:36:43.374Z,3.28
2023-03-11T03:39:09.811Z,2.92
2023-03-11T03:41:36.582Z,2.97
2023-03-11T03:44:03.462Z,4.57
2023-03-11T03:46:30.011Z,3.72
2023-03-11T03:48:56.455Z,3.50
2023-03-11T03:51:22.972Z,3.30
2023-03-11T03:53:49.660Z,4.97
2023-03-11T03:56:17.814Z,3.58
2023-03-11T03:58:44.376Z,4.18
2023-03-11T04:01:11.738Z,3.85
2023-03-11T04:03:39.023Z,4.40
2023-03-11T04:06:17.397Z,4.85
2023-03-11T04:08:43.902Z,2.95
2023-03-11T04:11:10.493Z,3.75
2023-03-11T04:13:36.903Z,3.50
2023-03-11T04:16:05.368Z,4.25
2023-03-11T04:18:32.132Z,4.63
2023-03-11T04:20:58.688Z,3.67
2023-03-11T04:23:25.086Z,3.42
2023-03-11T04:25:51.571Z,5.22
2023-03-11T04:28:18.091Z,4.13
2023-03-11T04:30:44.899Z,3.83
2023-03-11T04:33:11.297Z,3.13
2023-03-11T04:35:39.059Z,4.07
2023-03-11T04:38:05.506Z,4.38
2023-03-11T04:40:32.098Z,4.40
2023-03-11T04:42:58.612Z,4.80
2023-03-11T04:45:25.098Z,5.22
2023-03-11T04:47:52.021Z,4.85
2023-03-11T04:50:19.083Z,5.75
2023-03-11T04:52:46.245Z,5.18
2023-03-11T04:55:13.828Z,5.85
2023-03-11T04:57:43.883Z,5.63
2023-03-11T05:00:12.413Z,6.72
2023-03-11T05:02:39.953Z,6.45
2023-03-11T05:05:07.208Z,5.72
2023-03-11T05:07:33.639Z,7.22
2023-03-11T05:10:00.162Z,4.80
2023-03-11T05:12:26.595Z,4.47
2023-03-11T05:14:53.020Z,5.45
2023-03-11T05:17:19.836Z,3.88
2023-03-11T05:19:46.795Z,3.67
2023-03-11T05:22:13.346Z,6.38
2023-03-11T05:24:40.125Z,4.15
2023-03-11T05:27:06.515Z,4.10
2023-03-11T05:29:33.066Z,4.10
2023-03-11T05:31:59.466Z,4.85
2023-03-11T05:34:25.928Z,3.22
2023-03-11T05:36:52.389Z,3.92
2023-03-11T05:39:18.865Z,4.40
2023-03-11T05:41:45.285Z,4.28
2023-03-11T05:44:11.773Z,3.97
2023-03-11T05:46:38.381Z,3.13
2023-03-11T05:49:04.874Z,3.58
2023-03-11T05:51:31.487Z,3.15
2023-03-11T05:53:58.640Z,3.90
2023-03-11T05:56:25.156Z,3.22
2023-03-11T05:58:51.599Z,3.20
2023-03-11T06:01:19.611Z,4.10
2023-03-11T06:03:46.264Z,3.42
2023-03-11T06:06:13.813Z,4.47
2023-03-11T06:08:45.866Z,4.32
2023-03-11T06:11:12.312Z,4.22
2023-03-11T06:13:38.819Z,4.03
2023-03-11T06:16:05.698Z,2.65
2023-03-11T06:18:32.216Z,3.55
2023-03-11T06:20:59.785Z,5.22
2023-03-11T06:23:26.629Z,4.25
2023-03-11T06:26:02.215Z,4.85
2023-03-11T06:28:29.432Z,3.20
2023-03-11T06:30:58.684Z,3.35
2023-03-11T06:35:58.581Z,4.55
2023-03-11T06:38:25.483Z,4.47
2023-03-11T06:40:52.400Z,3.72
2023-03-11T06:43:19.426Z,4.63
2023-03-11T06:45:46.300Z,5.03
2023-03-11T06:48:12.929Z,5.13
2023-03-11T06:50:39.516Z,5.00
2023-03-11T06:53:08.803Z,5.45
2023-03-11T06:55:35.704Z,4.35
2023-03-11T06:58:02.519Z,6.32
2023-03-11T07:00:31.154Z,5.65
2023-03-11T07:02:57.817Z,4.90
2023-03-11T07:05:24.439Z,4.97
2023-03-11T07:07:55.156Z,6.05
2023-03-11T07:10:21.675Z,5.05
2023-03-11T07:12:48.068Z,5.13
2023-03-11T07:15:14.707Z,6.88
2023-03-11T07:17:41.122Z,4.63
2023-03-11T07:20:08.487Z,5.88
2023-03-11T07:22:34.894Z,3.97
2023-03-11T07:25:01.308Z,3.72
2023-03-11T07:27:28.385Z,4.90
2023-03-11T07:29:55.031Z,4.40
2023-03-11T07:32:21.564Z,7.22
2023-03-11T07:34:48.070Z,6.05
2023-03-11T07:37:14.512Z,4.55
2023-03-11T07:39:41.515Z,4.68
2023-03-11T07:42:08.024Z,4.97
2023-03-11T07:44:34.453Z,2.92
2023-03-11T07:47:05.987Z,5.15
2023-03-11T07:49:33.306Z,4.57
2023-03-11T07:51:59.716Z,5.43
2023-03-11T07:54:26.233Z,4.85
2023-03-11T07:56:52.958Z,7.45
2023-03-11T07:59:19.432Z,6.72
2023-03-11T08:01:47.089Z,8.98
2023-03-11T08:04:16.704Z,5.85
2023-03-11T08:06:45.866Z,7.70
2023-03-11T08:09:12.756Z,9.95
2023-03-11T08:11:39.753Z,5.45
2023-03-11T08:14:06.922Z,8.27
2023-03-11T08:16:33.539Z,6.40
2023-03-11T08:19:00.260Z,14.00
2023-03-11T08:21:29.145Z,6.47
2023-03-11T08:24:01.662Z,12.77
2023-03-11T08:26:28.773Z,10.73
2023-03-11T08:28:57.010Z,5.07
2023-03-11T08:31:26.189Z,9.95
2023-03-11T08:33:56.121Z,5.13
2023-03-11T08:36:22.824Z,6.72
2023-03-11T08:38:49.298Z,6.80
2023-03-11T08:41:16.405Z,6.40
2023-03-11T08:43:44.318Z,5.32
2023-03-11T08:46:21.037Z,5.00
2023-03-11T08:48:47.516Z,5.35
2023-03-11T08:51:14.009Z,4.78
2023-03-11T08:53:40.758Z,6.22
2023-03-11T08:56:07.547Z,4.97
2023-03-11T08:58:34.333Z,5.03
2023-03-11T09:01:00.945Z,3.90
2023-03-11T09:03:27.566Z,4.13
2023-03-11T09:05:58.378Z,4.30
2023-03-11T09:08:24.928Z,3.78
2023-03-11T09:10:51.320Z,5.70
2023-03-11T09:13:17.787Z,3.53
2023-03-11T09:15:44.231Z,3.08
2023-03-11T09:18:14.863Z,3.42
2023-03-11T09:20:42.196Z,3.15
2023-03-11T09:23:09.733Z,3.78
2023-03-11T09:25:36.202Z,3.15
2023-03-11T09:28:02.823Z,4.45
2023-03-11T09:30:29.905Z,4.80
2023-03-11T09:32:56.395Z,4.20
2023-03-11T09:35:23.159Z,4.78
2023-03-11T09:37:49.682Z,5.10
2023-03-11T09:40:19.299Z,8.98
2023-03-11T09:43:04.481Z,6.78
2023-03-11T09:45:34.530Z,4.07
2023-03-11T09:48:04.157Z,4.05
2023-03-11T09:50:54.377Z,4.20
2023-03-11T09:53:43.773Z,6.28
2023-03-11T09:56:17.198Z,5.15
2023-03-11T09:58:47.422Z,4.07
2023-03-11T10:01:31.503Z,6.18
2023-03-11T10:04:10.387Z,5.22
2023-03-11T10:06:38.069Z,3.53
2023-03-11T10:09:22.609Z,4.72
2023-03-11T10:11:55.041Z,3.70
2023-03-11T10:15:11.918Z,4.40
2023-03-11T10:18:05.077Z,9.45
2023-03-11T10:21:00.760Z,8.80
2023-03-11T10:23:36.791Z,17.98
2023-03-11T10:26:06.948Z,17.90
2023-03-11T10:28:42.568Z,15.98
2023-03-11T10:31:34.716Z,6.28
2023-03-11T10:34:18.107Z,16.85
2023-03-11T10:37:04.031Z,22.58
2023-03-11T10:39:32.713Z,9.25
2023-03-11T10:42:04.522Z,8.45
2023-03-11T10:44:36.352Z,9.55
2023-03-11T10:47:03.589Z,8.90
2023-03-11T10:49:30.677Z,8.63
2023-03-11T10:51:58.091Z,7.55
2023-03-11T10:54:45.993Z,11.10
2023-03-11T10:57:35.867Z,15.55
2023-03-11T11:00:17.420Z,20.42
2023-03-11T11:02:58.217Z,16.58
2023-03-11T11:05:33.683Z,21.80
2023-03-11T11:08:15.826Z,17.17
2023-03-11T11:10:56.888Z,20.38
2023-03-11T11:13:34.828Z,18.02
2023-03-11T11:16:17.504Z,17.98
2023-03-11T11:18:49.565Z,9.60
2023-03-11T11:21:27.639Z,15.43
2023-03-11T11:24:20.310Z,14.75
2023-03-11T11:27:14.684Z,15.88
2023-03-11T11:29:41.709Z,15.02
2023-03-11T11:32:27.186Z,11.70
2023-03-11T11:34:53.570Z,12.63
2023-03-11T11:37:20.859Z,9.23
2023-03-11T11:39:52.196Z,5.05
2023-03-11T11:42:20.022Z,5.57
2023-03-11T11:44:50.487Z,4.28
2023-03-11T11:47:37.822Z,4.13
2023-03-11T11:50:13.086Z,4.90
2023-03-11T11:52:48.565Z,5.97
2023-03-11T11:55:20.414Z,4.78
2023-03-11T11:57:47.489Z,5.70
2023-03-11T12:00:44.443Z,5.10
2023-03-11T12:03:26.144Z,5.00
2023-03-11T12:05:58.929Z,5.00
2023-03-11T12:09:00.752Z,5.38
2023-03-11T12:11:57.628Z,4.38
2023-03-11T12:14:35.255Z,4.68
2023-03-11T12:17:05.298Z,6.13
2023-03-11T12:19:54.286Z,5.03
2023-03-11T12:22:26.705Z,4.25
2023-03-11T12:25:12.974Z,6.05
2023-03-11T12:27:47.888Z,5.82
2023-03-11T12:30:23.311Z,5.80
2023-03-11T12:32:56.458Z,5.05
2023-03-11T12:35:27.779Z,8.18
2023-03-11T12:38:07.948Z,6.00
2023-03-11T12:40:50.316Z,4.80
2023-03-11T12:43:34.960Z,5.63
2023-03-11T12:46:14.873Z,5.80
2023-03-11T12:48:41.388Z,8.85
2023-03-11T12:51:27.924Z,6.03
2023-03-11T12:53:55.725Z,5.70
2023-03-11T12:56:31.310Z,5.07
2023-03-11T12:59:34.975Z,6.65
2023-03-11T13:02:19.550Z,4.88
2023-03-11T13:05:21.554Z,3.33
2023-03-11T13:08:01.289Z,5.25
2023-03-11T13:10:35.958Z,3.88
2023-03-11T13:13:02.898Z,3.95
2023-03-11T13:15:34.790Z,4.60
2023-03-11T13:18:12.990Z,4.68
2023-03-11T13:20:41.240Z,4.57
2023-03-11T13:23:12.315Z,5.32
2023-03-11T13:25:43.348Z,5.63
2023-03-11T13:28:34.712Z,5.00
2023-03-11T13:31:04.220Z,5.80
2023-03-11T13:33:54.285Z,4.40
2023-03-11T13:36:48.638Z,5.82
2023-03-11T13:39:39.698Z,5.50
2023-03-11T13:42:31.333Z,4.20
2023-03-11T13:44:59.462Z,9.32
2023-03-11T13:47:28.781Z,15.63
2023-03-11T13:50:20.670Z,15.07
2023-03-11T13:52:49.624Z,9.23
2023-03-11T13:55:23.151Z,10.32
2023-03-11T13:57:52.130Z,6.38
2023-03-11T14:00:28.464Z,4.95
2023-03-11T14:02:57.827Z,10.93
2023-03-11T14:05:27.343Z,12.38
2023-03-11T14:07:54.246Z,8.23
2023-03-11T14:10:27.257Z,6.47
2023-03-11T14:13:20.183Z,9.18
2023-03-11T14:16:14.525Z,4.82
2023-03-11T14:19:00.733Z,4.40
2023-03-11T14:21:27.870Z,4.13
2023-03-11T14:23:56.096Z,3.20
2023-03-11T14:26:26.291Z,5.20
2023-03-11T14:28:55.505Z,3.90
2023-03-11T14:31:34.096Z,10.68
2023-03-11T14:34:07.496Z,4.75
2023-03-11T14:36:45.418Z,5.40
2023-03-11T14:39:39.245Z,4.03
2023-03-11T14:42:37.532Z,3.13
2023-03-11T14:45:10.988Z,4.57
2023-03-11T14:47:59.484Z,3.33
2023-03-11T14:50:30.475Z,4.82
2023-03-11T14:52:56.917Z,3.58
2023-03-11T14:55:30.499Z,3.60
2023-03-11T14:58:14.912Z,3.65
2023-03-11T15:01:04.259Z,25.17
2023-03-11T15:03:34.198Z,16.77
2023-03-11T15:06:11.998Z,9.82
2023-03-11T15:08:44.090Z,5.57
2023-03-11T15:11:11.150Z,15.13
2023-03-11T15:13:42.963Z,12.32
2023-03-11T15:16:38.868Z,16.05
2023-03-11T15:19:22.043Z,8.98
2023-03-11T15:21:50.955Z,24.75
2023-03-11T15:24:25.829Z,14.00
2023-03-11T15:26:58.306Z,10.25
2023-03-11T15:29:25.963Z,9.65
2023-03-11T15:31:52.490Z,8.85
2023-03-11T15:34:18.877Z,10.23
2023-03-11T15:36:56.766Z,7.68
2023-03-11T15:39:32.331Z,9.63
2023-03-11T15:42:08.060Z,3.50
2023-03-11T15:44:42.716Z,2.67
2023-03-11T15:47:15.008Z,4.25
2023-03-11T15:49:41.845Z,1.63
2023-03-11T15:52:09.378Z,2.90
2023-03-11T15:54:36.224Z,2.10
2023-03-11T15:57:05.945Z,3.45
2023-03-11T15:59:34.009Z,3.05
2023-03-11T16:02:00.930Z,3.28
2023-03-11T16:04:27.530Z,1.45
2023-03-11T16:07:06.905Z,2.65
2023-03-11T16:09:34.310Z,4.68
2023-03-11T16:12:01.901Z,4.32
2023-03-11T16:14:28.359Z,2.20
2023-03-11T16:16:54.796Z,2.38
2023-03-11T16:19:21.283Z,2.95
2023-03-11T16:21:50.194Z,0.90
2023-03-11T16:24:21.030Z,1.77
2023-03-11T16:26:47.895Z,2.50
2023-03-11T16:29:19.465Z,1.63
2023-03-11T16:31:46.573Z,2.47
2023-03-11T16:34:13.208Z,2.90
2023-03-11T16:36:39.672Z,0.93
2023-03-11T16:39:06.386Z,1.42
2023-03-11T16:41:44.246Z,2.15
2023-03-11T16:44:11.711Z,2.40
2023-03-11T16:46:38.458Z,1.88
2023-03-11T16:49:05.375Z,1.55
2023-03-11T16:51:32.611Z,1.80
2023-03-11T16:53:59.190Z,1.77
2023-03-11T16:56:25.707Z,3.47
2023-03-11T16:58:52.372Z,1.00
2023-03-11T17:01:19.175Z,2.38
2023-03-11T17:03:48.858Z,1.40
2023-03-11T17:06:17.052Z,1.63
2023-03-11T17:08:48.787Z,1.75
2023-03-11T17:11:20.980Z,1.60
2023-03-11T17:13:47.600Z,3.03
2023-03-11T17:16:14.151Z,1.90
2023-03-11T17:18:40.788Z,2.00
2023-03-11T17:21:09.796Z,3.97
2023-03-11T17:23:36.297Z,3.10
2023-03-11T17:26:02.772Z,3.85
2023-03-11T17:28:29.400Z,2.85
2023-03-11T17:30:55.772Z,2.83
2023-03-11T17:33:22.203Z,2.83
2023-03-11T17:35:48.642Z,3.90
2023-03-11T17:38:16.566Z,3.88
2023-03-11T17:40:43.166Z,3.85
2023-03-11T17:43:09.807Z,3.88
2023-03-11T17:45:38.591Z,2.95
2023-03-11T17:48:05.287Z,3.38
2023-03-11T17:50:31.700Z,2.75
2023-03-11T17:52:58.188Z,4.30
2023-03-11T17:55:24.704Z,4.22
2023-03-11T17:57:52.322Z,5.45
2023-03-11T18:00:19.083Z,3.45
2023-03-11T18:02:45.461Z,5.65
2023-03-11T18:05:11.873Z,2.40
2023-03-11T18:07:42.035Z,3.88
2023-03-11T18:10:10.669Z,4.07
2023-03-11T18:12:38.540Z,5.10
2023-03-11T18:15:08.144Z,4.30
2023-03-11T18:17:35.197Z,4.05
2023-03-11T18:20:02.317Z,2.42
2023-03-11T18:22:28.808Z,2.75
2023-03-11T18:24:55.312Z,3.45
2023-03-11T18:27:21.726Z,3.50
2023-03-11T18:29:48.117Z,3.63
2023-03-11T18:32:14.663Z,3.10
2023-03-11T18:34:41.661Z,2.33
2023-03-11T18:37:08.662Z,3.45
2023-03-11T18:39:35.252Z,4.68
2023-03-11T18:42:02.860Z,4.57
2023-03-11T18:44:29.255Z,3.28
2023-03-11T18:46:55.781Z,3.17
2023-03-11T18:49:22.187Z,4.43
2023-03-11T18:51:48.613Z,3.05
2023-03-11T18:54:15.068Z,3.90
2023-03-11T18:56:42.254Z,4.95
2023-03-11T18:59:11.984Z,4.68
2023-03-11T19:01:38.564Z,5.70
2023-03-11T19:04:05.597Z,7.13
2023-03-11T19:06:32.164Z,7.00
2023-03-11T19:08:58.761Z,3.10
2023-03-11T19:11:25.895Z,4.70
2023-03-11T19:13:53.143Z,5.53
2023-03-11T19:16:22.375Z,5.97
2023-03-11T19:21:17.366Z,7.80
2023-03-11T19:23:45.274Z,7.38
2023-03-11T19:26:12.701Z,5.05
2023-03-11T19:28:39.139Z,5.28
2023-03-11T19:31:05.691Z,7.05
2023-03-11T19:33:32.546Z,4.47
2023-03-11T19:36:01.902Z,4.18
2023-03-11T19:38:29.419Z,4.93
2023-03-11T19:41:07.519Z,6.82
2023-03-11T19:43:35.720Z,6.65
2023-03-11T19:46:03.811Z,5.45
2023-03-11T19:48:30.519Z,6.05
2023-03-11T19:50:58.512Z,6.68
2023-03-11T19:53:25.975Z,5.15
2023-03-11T19:55:54.392Z,5.97
2023-03-11T19:58:24.981Z,5.40
2023-03-11T20:00:51.715Z,6.05
2023-03-11T20:03:18.765Z,3.20
2023-03-11T20:05:46.801Z,4.32
2023-03-11T20:08:16.427Z,3.67
2023-03-11T20:10:46.021Z,5.57
2023-03-11T20:13:14.630Z,4.80
2023-03-11T20:15:41.189Z,4.13
2023-03-11T20:18:07.920Z,4.85
2023-03-11T20:20:37.265Z,4.18
2023-03-11T20:25:32.224Z,4.43
2023-03-11T20:28:00.272Z,3.97
2023-03-11T20:30:27.594Z,8.48
2023-03-11T20:32:54.395Z,4.38
2023-03-11T20:35:21.584Z,6.72
2023-03-11T20:37:48.214Z,5.07
2023-03-11T20:40:18.749Z,4.68
2023-03-11T20:42:47.267Z,4.05
2023-03-11T20:45:17.427Z,4.75
2023-03-11T20:47:44.344Z,3.75
2023-03-11T20:50:14.172Z,4.03
2023-03-11T20:52:40.626Z,4.18
2023-03-11T20:55:08.421Z,4.63
2023-03-11T20:57:35.127Z,4.50
2023-03-11T21:00:01.601Z,2.72
2023-03-11T21:02:30.905Z,6.25
2023-03-11T21:07:24.002Z,4.82
2023-03-11T21:09:54.587Z,3.22
2023-03-11T21:12:21.917Z,3.15
2023-03-11T21:14:48.475Z,2.53
2023-03-11T21:17:16.002Z,3.25
2023-03-11T21:19:42.633Z,4.85
2023-03-11T21:22:09.521Z,3.88
2023-03-11T21:24:37.100Z,5.63
2023-03-11T21:27:03.650Z,2.78
2023-03-11T21:29:30.767Z,2.78
2023-03-11T21:31:57.561Z,3.88
2023-03-11T21:34:24.196Z,3.20
2023-03-11T21:36:50.744Z,3.72
2023-03-11T21:39:17.326Z,3.85
2023-03-11T21:41:43.855Z,3.35
2023-03-11T21:44:10.312Z,3.58
2023-03-11T21:46:36.883Z,5.45
2023-03-11T21:49:03.785Z,6.05
2023-03-11T21:51:30.329Z,3.22
2023-03-11T21:53:57.120Z,3.92
2023-03-11T21:56:24.034Z,2.38
2023-03-11T21:58:50.575Z,5.60
2023-03-11T22:01:17.389Z,4.45
2023-03-11T22:03:44.050Z,5.47
2023-03-11T22:06:14.916Z,3.67
2023-03-11T22:08:42.451Z,3.60
2023-03-11T22:11:17.445Z,5.22
2023-03-11T22:13:46.660Z,5.63
2023-03-11T22:16:13.260Z,5.75
2023-03-11T22:18:42.719Z,6.55
2023-03-11T22:21:10.831Z,3.55
2023-03-11T22:23:37.456Z,4.55
2023-03-11T22:26:03.988Z,4.63
2023-03-11T22:28:30.404Z,4.13
2023-03-11T22:30:56.924Z,5.32
2023-03-11T22:33:23.402Z,4.60
2023-03-11T22:35:52.816Z,3.55
2023-03-11T22:38:19.463Z,7.28
2023-03-11T22:40:45.962Z,3.30
2023-03-11T22:43:13.048Z,6.78
2023-03-11T22:45:42.411Z,5.13
2023-03-11T22:50:35.180Z,4.32
2023-03-11T22:53:01.609Z,3.28
2023-03-11T22:55:28.064Z,6.43
2023-03-11T22:57:54.635Z,4.95
2023-03-11T23:00:22.821Z,5.82
2023-03-11T23:02:55.281Z,4.72
2023-03-11T23:05:25.783Z,5.55
2023-03-11T23:07:52.194Z,5.40
2023-03-11T23:10:21.269Z,3.97
2023-03-11T23:15:17.695Z,3.25
2023-03-11T23:20:14.562Z,5.40
2023-03-11T23:22:42.095Z,2.97
2023-03-11T23:25:12.431Z,4.40
2023-03-11T23:27:39.006Z,3.22
2023-03-11T23:30:06.212Z,4.50
2023-03-11T23:32:32.810Z,3.90
2023-03-11T23:34:59.321Z,3.67
2023-03-11T23:37:25.765Z,3.35
2023-03-11T23:39:52.246Z,2.80
2023-03-11T23:42:25.393Z,4.50
2023-03-11T23:44:53.056Z,3.53
2023-03-11T23:47:19.667Z,2.78
2023-03-11T23:49:46.095Z,3.50
2023-03-11T23:52:12.501Z,5.60
2023-03-11T23:54:39.010Z,3.47
2023-03-11T23:57:05.479Z,2.72
2023-03-11T23:59:33.744Z,3.42
